Aérodrome :
LOGIN :

S'inscrire | Disclaimer

   EN    FR    IT 

 










Légende :    VFR   VFR Marginal   IFR   IFR Intensif   IFR Très Intensif
Visi : 
Plafond : 
>= 8 km
>= 3000ft
5 à 8 km
1000 à 3000 ft
1500m à 5 km
500 à 1000 ft
800 à 1500m
200 à 500 ft
< 800m
< 200 ft
Symboles :   Orages  Brouillard  Fortes neiges  Fortes précipitations  Vent > 20 kt
SIGMETs :   Divers  Orages  Givrage  Turbulence  Onde Orograph.  Cendres Volcan.






- Altitude de l'aérodrome : 22 ft
- Code IATA : TUN


DTTA - Tunis Carthage

DERNIER METAR :
  • 230130Z 30014KT 9999 SCT023 25/20 Q1015

METARs EXPIRÉS :
  • 230100Z 29013KT 9999 SCT023 25/20 Q1015
  • 230030Z 29014KT 9999 SCT023 25/19 Q1015
  • 230000Z 29010KT 9999 SCT023 SCT033 25/20 Q1016
  • 222330Z 30014KT 9999 SCT023 SCT033 25/19 Q1016
  • 222300Z 30015G25KT 260V330 9999 FEW023 25/19 Q1016
  • 222230Z 29015KT 260V330 9999 FEW023 26/19 Q1015
  • 222200Z 30018KT 270V330 9999 FEW023 25/18 Q1015
  • 222130Z 30017G30KT 270V340 9999 FEW023 26/19 Q1015
  • 222100Z 30017G31KT 270V330 9999 SCT023 26/19 Q1015

TAF TAF DTTA
Valide du 23 à 00h jusqu'au 24 à 00h UTC


222300Z 2300/2324 30015KT 9999 SCT023
PROB30
TEMPO 2310/2318 33020G30KT



MET'MAP, la Météo Aéronautique d'un coup d'oeil ! - Copyright ORBIFLY Décembre 2007 - Disclaimer

ORBIFLY MET'MAP TEAM :

Programmation & Développement : Alexandra Zaïnal
Sur une idée originale de : Baudouin d'Aumeries
Soutien technique & logistique : Manuel Goepfert
Assistance : Marc-Olivier Méhu




SOURCES & CREDITS :

   NOAA